createdAt,value
2023-11-09T00:00:00.415Z,16.3
2023-11-09T00:05:00.284Z,14.9
2023-11-09T00:09:59.959Z,14.9
2023-11-09T00:14:59.823Z,20.7
2023-11-09T00:19:59.770Z,21.0
2023-11-09T00:24:59.592Z,14.6
2023-11-09T00:29:59.431Z,11.6
2023-11-09T00:34:59.516Z,15.2
2023-11-09T00:39:59.194Z,15.2
2023-11-09T00:44:59.036Z,20.6
2023-11-09T00:49:58.953Z,7.1
2023-11-09T00:54:58.886Z,20.7
2023-11-09T00:59:58.735Z,20.7
2023-11-09T01:04:58.669Z,10.9
2023-11-09T01:09:58.463Z,10.7
2023-11-09T01:14:58.314Z,14.5
2023-11-09T01:19:58.200Z,14.5
2023-11-09T01:24:58.097Z,14.1
2023-11-09T01:29:57.895Z,14.1
2023-11-09T01:34:57.832Z,18.4
2023-11-09T01:39:57.638Z,13.5
2023-11-09T01:44:57.448Z,11.2
2023-11-09T01:49:57.338Z,15.2
2023-11-09T01:54:57.191Z,13.8
2023-11-09T01:59:57.026Z,15.3
2023-11-09T02:04:56.984Z,15.3
2023-11-09T02:09:56.775Z,12.0
2023-11-09T02:14:56.603Z,9.2
2023-11-09T02:24:56.378Z,22.4
2023-11-09T02:29:56.217Z,14.9
2023-11-09T02:34:56.071Z,14.9
2023-11-09T02:39:57.974Z,13.6
2023-11-09T02:44:55.798Z,16.0
2023-11-09T02:49:55.692Z,15.2
2023-11-09T02:54:55.588Z,10.8
2023-11-09T02:59:55.446Z,12.3
2023-11-09T03:09:55.332Z,13.0
2023-11-09T03:14:55.137Z,17.9
2023-11-09T03:19:55.115Z,16.1
2023-11-09T03:29:54.927Z,21.9
2023-11-09T03:34:54.932Z,21.9
2023-11-09T03:39:54.740Z,16.3
2023-11-09T03:44:54.773Z,16.4
2023-11-09T03:49:54.648Z,16.4
2023-11-09T03:54:54.601Z,12.3
2023-11-09T03:59:54.563Z,17.3
2023-11-09T04:04:54.554Z,12.3
2023-11-09T04:09:54.500Z,12.3
2023-11-09T04:14:54.453Z,7.7
2023-11-09T04:19:54.407Z,16.0
2023-11-09T04:24:54.451Z,12.3
2023-11-09T04:29:54.305Z,26.6
2023-11-09T04:34:54.290Z,10.5
2023-11-09T04:39:54.219Z,10.5
2023-11-09T04:44:54.296Z,8.1
2023-11-09T04:49:54.230Z,6.7
2023-11-09T04:54:54.075Z,5.5
2023-11-09T04:59:54.097Z,5.0
2023-11-09T05:09:53.945Z,4.6
2023-11-09T05:14:57.882Z,3.3
2023-11-09T05:19:53.805Z,3.3
2023-11-09T05:24:53.736Z,6.7
2023-11-09T05:29:53.709Z,3.9
2023-11-09T05:34:53.649Z,3.3
2023-11-09T05:44:53.400Z,4.5
2023-11-09T05:49:53.284Z,2.1
2023-11-09T05:54:53.137Z,3.2
2023-11-09T05:59:53.037Z,3.5
2023-11-09T06:04:52.971Z,4.3
2023-11-09T06:09:52.870Z,2.9
2023-11-09T06:14:52.731Z,4.4
2023-11-09T06:24:52.586Z,5.0
2023-11-09T06:29:52.505Z,3.7
2023-11-09T06:39:52.375Z,3.8
2023-11-09T06:44:52.310Z,6.4
2023-11-09T06:49:52.244Z,5.6
2023-11-09T06:54:52.085Z,5.6
2023-11-09T06:59:52.039Z,6.6
2023-11-09T07:04:52.102Z,6.6
2023-11-09T07:14:53.815Z,4.8
2023-11-09T07:19:51.755Z,5.4
2023-11-09T07:29:51.604Z,8.1
2023-11-09T07:34:51.568Z,8.0
2023-11-09T07:39:51.479Z,11.4
2023-11-09T07:44:51.387Z,8.4
2023-11-09T07:49:51.357Z,3.9
2023-11-09T07:54:51.277Z,5.1
2023-11-09T08:04:51.158Z,7.7
2023-11-09T08:09:51.096Z,6.3
2023-11-09T08:14:50.988Z,5.8
2023-11-09T08:19:51.058Z,11.9
2023-11-09T08:24:50.877Z,8.1
2023-11-09T08:29:50.820Z,7.5
2023-11-09T08:39:50.735Z,9.8
2023-11-09T08:44:50.659Z,5.0
2023-11-09T08:49:50.593Z,3.4
2023-11-09T08:54:50.507Z,4.7
2023-11-09T08:59:50.447Z,4.2
2023-11-09T09:04:51.415Z,9.5
2023-11-09T09:09:50.296Z,3.4
2023-11-09T09:14:50.227Z,3.3
2023-11-09T09:19:50.340Z,5.9
2023-11-09T09:24:50.204Z,8.5
2023-11-09T09:29:50.152Z,12.5
2023-11-09T09:34:50.120Z,4.5
2023-11-09T09:39:50.121Z,3.4
2023-11-09T09:44:50.223Z,9.0
2023-11-09T09:49:50.033Z,9.0
2023-11-09T09:54:50.012Z,5.2
2023-11-09T09:59:49.972Z,5.2
2023-11-09T10:04:50.023Z,4.9
2023-11-09T10:09:49.919Z,3.9
2023-11-09T10:14:49.879Z,4.4
2023-11-09T10:19:51.173Z,4.4
2023-11-09T10:24:49.792Z,7.2
2023-11-09T10:29:49.767Z,7.2
2023-11-09T10:34:49.863Z,5.5
2023-11-09T10:39:50.773Z,3.8
2023-11-09T10:44:49.744Z,5.4
2023-11-09T10:54:49.780Z,2.6
2023-11-09T10:59:49.730Z,5.1
2023-11-09T11:04:49.732Z,5.1
2023-11-09T11:09:49.651Z,8.7
2023-11-09T11:14:52.191Z,10.1
2023-11-09T11:19:49.649Z,10.1
2023-11-09T11:24:49.567Z,13.6
2023-11-09T11:29:49.677Z,12.4
2023-11-09T11:34:49.598Z,8.3
2023-11-09T11:39:49.584Z,11.3
2023-11-09T11:44:55.129Z,15.0
2023-11-09T11:49:49.622Z,6.8
2023-11-09T11:54:49.541Z,8.6
2023-11-09T11:59:49.571Z,11.6
2023-11-09T12:09:49.570Z,12.1
2023-11-09T12:14:49.580Z,15.1
2023-11-09T12:19:49.614Z,12.1
2023-11-09T12:24:49.625Z,14.2
2023-11-09T12:29:49.638Z,12.1
2023-11-09T12:34:49.745Z,14.5
2023-11-09T12:39:49.904Z,13.0
2023-11-09T12:44:49.700Z,14.5
2023-11-09T12:49:49.751Z,13.0
2023-11-09T12:54:49.692Z,10.7
2023-11-09T12:59:49.934Z,12.8
2023-11-09T13:04:49.834Z,13.6
2023-11-09T13:09:49.775Z,14.9
2023-11-09T13:14:49.714Z,10.4
2023-11-09T13:19:49.782Z,9.3
2023-11-09T13:24:49.737Z,11.5
2023-11-09T13:29:51.702Z,18.6
2023-11-09T13:34:49.815Z,17.2
2023-11-09T13:39:49.716Z,9.4
2023-11-09T13:44:49.719Z,12.1
2023-11-09T13:49:49.768Z,8.3
2023-11-09T13:54:49.946Z,10.6
2023-11-09T13:59:49.747Z,9.7
2023-11-09T14:04:49.851Z,8.5
2023-11-09T14:09:49.786Z,9.4
2023-11-09T14:14:49.826Z,10.8
2023-11-09T14:24:49.950Z,11.5
2023-11-09T14:29:49.896Z,11.5
2023-11-09T14:34:49.996Z,12.1
2023-11-09T14:39:49.873Z,15.4
2023-11-09T14:44:49.910Z,13.2
2023-11-09T14:49:50.019Z,14.8
2023-11-09T14:54:49.922Z,13.1
2023-11-09T14:59:51.905Z,17.9
2023-11-09T15:04:49.984Z,12.1
2023-11-09T15:09:49.938Z,11.6
2023-11-09T15:14:49.939Z,11.6
2023-11-09T15:24:49.884Z,7.0
2023-11-09T15:29:49.836Z,13.1
2023-11-09T15:34:49.896Z,8.9
2023-11-09T15:40:12.706Z,11.5
2023-11-09T15:44:49.709Z,13.8
2023-11-09T15:49:49.694Z,16.0
2023-11-09T15:54:49.746Z,13.6
2023-11-09T15:59:49.662Z,14.1
2023-11-09T16:04:49.660Z,15.3
2023-11-09T16:09:59.896Z,21.5
2023-11-09T16:14:49.583Z,10.6
2023-11-09T16:19:49.634Z,16.3
2023-11-09T16:24:49.581Z,16.5
2023-11-09T16:29:49.565Z,18.1
2023-11-09T16:34:49.564Z,11.0
2023-11-09T16:39:49.520Z,18.1
2023-11-09T16:44:49.502Z,15.4
2023-11-09T16:49:49.475Z,16.0
2023-11-09T16:54:49.418Z,9.2
2023-11-09T17:04:51.347Z,11.7
2023-11-09T17:09:49.238Z,13.2
2023-11-09T17:14:49.201Z,10.7
2023-11-09T17:19:49.139Z,11.0
2023-11-09T17:24:49.074Z,10.0
2023-11-09T17:29:49.036Z,11.3
2023-11-09T17:34:49.055Z,11.3
2023-11-09T17:39:48.912Z,11.8
2023-11-09T17:44:48.898Z,9.0
2023-11-09T17:49:48.853Z,8.8
2023-11-09T17:54:48.751Z,18.6
2023-11-09T17:59:48.662Z,18.6
2023-11-09T18:04:48.629Z,12.4
2023-11-09T18:09:48.576Z,12.4
2023-11-09T18:14:48.472Z,13.0
2023-11-09T18:19:48.349Z,15.0
2023-11-09T18:24:48.237Z,13.4
2023-11-09T18:29:48.141Z,10.5
2023-11-09T18:34:48.112Z,9.4
2023-11-09T18:39:48.024Z,9.4
2023-11-09T18:44:48.032Z,8.0
2023-11-09T18:54:47.886Z,8.8
2023-11-09T18:59:47.773Z,7.7
2023-11-09T19:04:49.088Z,6.3
2023-11-09T19:09:47.715Z,9.4
2023-11-09T19:14:47.646Z,9.1
2023-11-09T19:19:47.540Z,6.3
2023-11-09T19:24:47.471Z,6.3
2023-11-09T19:29:47.412Z,6.1
2023-11-09T19:34:47.355Z,6.5
2023-11-09T19:39:47.306Z,6.5
2023-11-09T19:44:47.335Z,7.4
2023-11-09T19:49:47.258Z,7.6
2023-11-09T19:54:47.249Z,6.9
2023-11-09T19:59:47.209Z,6.9
2023-11-09T20:04:47.162Z,11.2
2023-11-09T20:09:47.138Z,11.2
2023-11-09T20:14:47.121Z,8.4
2023-11-09T20:19:47.093Z,8.8
2023-11-09T20:24:47.067Z,5.8
2023-11-09T20:29:47.007Z,11.3
2023-11-09T20:34:46.989Z,11.3
2023-11-09T20:44:46.914Z,9.6
2023-11-09T20:49:46.869Z,10.9
2023-11-09T20:54:46.872Z,7.6
2023-11-09T20:59:46.824Z,6.7
2023-11-09T21:04:46.797Z,6.7
2023-11-09T21:09:46.818Z,7.4
2023-11-09T21:14:46.755Z,14.0
2023-11-09T21:24:46.749Z,7.8
2023-11-09T21:29:46.729Z,7.1
2023-11-09T21:34:46.724Z,6.4
2023-11-09T21:44:46.623Z,8.5
2023-11-09T21:49:46.545Z,8.3
2023-11-09T21:54:46.516Z,12.2
2023-11-09T22:04:46.423Z,15.3
2023-11-09T22:14:46.427Z,13.0
2023-11-09T22:19:46.384Z,14.6
2023-11-09T22:24:46.367Z,10.7
2023-11-09T22:29:46.337Z,12.9
2023-11-09T22:34:47.125Z,14.3
2023-11-09T22:39:46.276Z,13.7
2023-11-09T22:44:48.239Z,12.1
2023-11-09T22:49:46.222Z,11.8
2023-11-09T22:54:46.342Z,11.8
2023-11-09T22:59:46.181Z,12.9
2023-11-09T23:04:46.182Z,16.0
2023-11-09T23:09:46.165Z,15.0
2023-11-09T23:14:46.130Z,15.0
2023-11-09T23:19:54.484Z,17.0
2023-11-09T23:24:46.085Z,21.9
2023-11-09T23:29:46.039Z,19.4
2023-11-09T23:34:46.054Z,21.0
2023-11-09T23:39:46.069Z,15.1
2023-11-09T23:44:46.003Z,18.0
2023-11-09T23:49:45.986Z,18.0
2023-11-09T23:54:46.063Z,14.1
2023-11-09T23:59:45.942Z,14.1
